Wind EuroAirport

Messzeit Windrichtung Windgeschwindigkeit [Knoten] Rückenwind Nordpiste [Knoten] METAR
2021-11-29 16:30 W 270° 12 4 LFSB 291530Z 27012KT CAVOK 02/M03 Q1013 NOSIG
2021-11-29 16:00 W 270° 12 4 LFSB 291500Z 27012KT CAVOK 03/M02 Q1013 NOSIG
2021-11-29 15:30 W 260° 11 2 LFSB 291430Z 26011KT CAVOK 04/M02 Q1012 NOSIG
2021-11-29 15:00 NW 300° 8 6 LFSB 291400Z 30008KT 9999 FEW033 BKN053 04/M03 Q1012 NOSIG
2021-11-29 14:30 - 3 - LFSB 291330Z VRB03KT 9999 FEW033 BKN053 05/M02 Q1011 NOSIG
2021-11-29 14:00 W 270° 6 2 LFSB 291300Z 27006KT 9999 FEW026 SCT046 04/M02 Q1011 NOSIG
2021-11-29 13:30 W 260°
(230°–290°)
6 0–4 LFSB 291230Z 26006KT 230V290 9999 SCT023 SCT050 04/M00 Q1011 NOSIG
2021-11-29 13:00 W 270° 4 1 LFSB 291200Z 27004KT 9999 SCT023 SCT050 04/M02 Q1011 NOSIG
2021-11-29 12:30 W 290° 6 4 LFSB 291130Z 29006KT 9999 BKN023 04/00 Q1011 NOSIG
2021-11-29 12:00 NW 320°
(270°–360°)
5 2–5 LFSB 291100Z 32005KT 270V360 9999 SCT021 SCT040 04/M00 Q1010 NOSIG
2021-11-29 11:30 W 280° 7 4 LFSB 291030Z 28007KT 9999 SCT023 04/01 Q1010 NOSIG
2021-11-29 11:00 W 270° 7 2 LFSB 291000Z 27007KT 9999 SCT023 03/01 Q1010 NOSIG
2021-11-29 10:30 W 260° 7 1 LFSB 290930Z 26007KT 9999 SCT023 BKN056 02/01 Q1009 NOSIG
2021-11-29 10:00 W 260° 6 1 LFSB 290900Z 26006KT 9999 BKN023 BKN060 02/01 Q1009 NOSIG
2021-11-29 09:30 W 270° 4 1 LFSB 290830Z 27004KT 9999 BKN025 01/00 Q1008 NOSIG
2021-11-29 09:00 - 2 - LFSB 290800Z VRB02KT 9999 BKN026 SCT060 01/00 Q1008 NOSIG
2021-11-29 08:30 W 250° 4 - LFSB 290730Z 25004KT 8000 -SNRA FEW008 BKN026 01/00 Q1007 NOSIG
2021-11-29 08:00 W 270° 7 2 LFSB 290700Z 27007KT 7000 -SNRA SCT008 BKN026 01/M00 Q1007 NOSIG
2021-11-29 07:30 - 1 - LFSB 290630Z VRB01KT 9999 -SN BKN026 01/M00 Q1006 NOSIG
2021-11-29 07:00 - 2 - LFSB 290600Z VRB02KT 9999 FEW040 BKN053 01/M00 Q1006 TEMPO -RASN
2021-11-29 06:30 - 1 - LFSB 290530Z AUTO VRB01KT 9999 SCT056 OVC084 01/M00 Q1005 TEMPO 4000 -SNRA BKN012
2021-11-29 06:00 - 2 - LFSB 290500Z AUTO VRB02KT 9000 OVC052 01/M00 Q1005 TEMPO 1200 -SN OVC004
2021-11-29 05:30 - 0 - LFSB 290430Z AUTO 00000KT 9000 FEW020 OVC050 01/00 Q1004 TEMPO 1200 -SN OVC004
2021-11-29 05:00 NO 30° 3 2 LFSB 290400Z AUTO 03003KT 9000 FEW019 OVC050 01/M00 Q1004 TEMPO 4000 -SN BKN012
2021-11-29 04:30 NW 330° 3 3 LFSB 290330Z AUTO 33003KT 9999 FEW010 BKN017 BKN052 01/M00 Q1003 TEMPO 4000 -SN BKN012
2021-11-29 04:00 NW 330° 4 4 LFSB 290300Z AUTO 33004KT 9999 FEW009 BKN017 BKN023 01/00 Q1003 TEMPO 4000 -SN BKN012
2021-11-29 03:30 NW 310°
(290°–10°)
3 2–3 LFSB 290230Z AUTO 31003KT 290V010 9999 BKN017 BKN022 BKN054 01/00 Q1003 TEMPO 4000 -SN BKN012
2021-11-29 03:00 - 2 - LFSB 290200Z AUTO VRB02KT 9999 BKN017 BKN028 BKN042 01/00 Q1002 TEMPO 4000 -SN BKN012
2021-11-29 02:30 - 3 - LFSB 290130Z AUTO VRB03KT 9999 -RA FEW008 BKN017 OVC022 02/01 Q1002 TEMPO 4000 -SN BKN012
2021-11-29 02:00 W 280° 9 5 LFSB 290100Z AUTO 28009KT 9000 -SNRA SCT008 BKN015 BKN041 02/01 Q1002 TEMPO 4000 -SN BKN012
2021-11-29 01:30 W 290° 9 6 LFSB 290030Z AUTO 29009KT 9999 -SNRA FEW015 BKN023 BKN037 02/00 Q1001 TEMPO 4000 -SN BKN012
2021-11-29 01:00 W 270° 10 3 LFSB 290000Z AUTO 27010KT 9999 -RA BKN035 BKN042 OVC049 02/01 Q1001 TEMPO 4000 -SN BKN012
2021-11-29 00:30 W 270° 7 2 LFSB 282330Z AUTO 27007KT 9999 -RA FEW015 OVC039 02/01 Q1001 TEMPO 4000 -SN BKN012
2021-11-29 00:00 W 290° 5 3 LFSB 282300Z AUTO 29005KT 9999 -RA FEW022 SCT029 BKN039 02/01 Q1001 TEMPO 1200 -SN OVC004
2021-11-28 23:30 W 270° 6 2 LFSB 282230Z AUTO 27006KT 9999 -RA BKN028 BKN039 BKN046 02/01 Q1000 TEMPO 1200 -SN OVC004
2021-11-28 23:00 W 270° 7 2 LFSB 282200Z AUTO 27007KT 9999 -RA BKN029 OVC042 02/01 Q1000 TEMPO 1200 -SN OVC004
2021-11-28 22:30 W 270° 5 2 LFSB 282130Z AUTO 27005KT 9999 -RA BKN025 BKN035 OVC044 02/01 Q1000 TEMPO 1200 -SN OVC004
2021-11-28 22:00 W 250° 8 - LFSB 282100Z AUTO 25008KT 9999 -RA FEW024 BKN042 BKN048 02/01 Q1000 TEMPO 1200 -SN OVC004
2021-11-28 21:30 W 250° 9 - LFSB 282030Z AUTO 25009KT 9999 -RA BKN025 BKN034 BKN056 02/01 Q0999 TEMPO 1200 -SN OVC004
2021-11-28 21:00 W 250° 8 - LFSB 282000Z AUTO 25008KT 9999 FEW026 SCT036 BKN054 02/01 Q0999 TEMPO 1200 -SN OVC004
2021-11-28 20:30 W 260° 10 2 LFSB 281930Z AUTO 26010KT 9999 -RA BKN034 BKN042 BKN048 02/01 Q0999 TEMPO 1200 -SN OVC004
2021-11-28 20:00 W 260° 9 2 LFSB 281900Z AUTO 26009KT 9999 -RA BKN038 BKN045 OVC066 02/01 Q0999 TEMPO BKN012
2021-11-28 19:30 W 260° 9 2 LFSB 281830Z AUTO 26009KT 9999 FEW037 BKN045 OVC064 02/01 Q0998 TEMPO BKN012
2021-11-28 19:00 W 260° 10 2 LFSB 281800Z 26010KT 9999 FEW011 BKN040 02/01 Q0998 TEMPO -RASN BKN012
2021-11-28 18:30 W 260° 10 2 LFSB 281730Z 26010KT 9999 FEW011 BKN060 02/01 Q0997 NOSIG
2021-11-28 18:00 W 260° 10 2 LFSB 281700Z 26010KT 9999 SCT013 SCT031 BKN043 02/01 Q0997 NOSIG
2021-11-28 17:30 W 250° 7 - LFSB 281630Z 25007KT 9999 -RA BKN011 02/01 Q0997 TEMPO 4000 -SNRA
2021-11-28 17:00 W 260° 6 1 LFSB 281600Z 26006KT 9999 -RA BKN009 02/01 Q0997 TEMPO 4000 -SNRA